Time;durP1;ratioP1;P1;durP2;ratioP2;P2;SDS_P1;SDS_P2;PMS_P1;PMS_P2;Temp;Humidity;BMP_temperature;BMP_pressure;BME280_temperature;BME280_humidity;BME280_pressure;Samples;Min_cycle;Max_cycle;Signal;HPM_P1;HPM_P2
2023/06/11 00:01:31;;;;;;;10.33;6.07;;;19.00;99.90;;;;;;5072668;28;20059;-72
2023/06/11 00:03:57;;;;;;;10.93;6.33;;;19.00;99.90;;;;;;5073588;28;20127;-72
2023/06/11 00:06:23;;;;;;;13.30;6.23;;;19.00;99.90;;;;;;5072606;28;20044;-71
2023/06/11 00:08:53;;;;;;;13.30;5.60;;;19.00;99.90;;;;;;5072132;28;20185;-71
2023/06/11 00:11:20;;;;;;;9.13;6.17;;;19.00;99.90;;;;;;5072551;28;20404;-71
2023/06/11 00:13:46;;;;;;;13.43;6.60;;;19.00;99.90;;;;;;5073426;28;20044;-72
2023/06/11 00:16:15;;;;;;;13.43;5.93;;;19.00;99.90;;;;;;5072631;28;20045;-71
2023/06/11 00:18:42;;;;;;;15.97;7.00;;;19.00;99.90;;;;;;5073280;28;20080;-71
2023/06/11 00:21:12;;;;;;;9.00;5.43;;;19.00;99.90;;;;;;5072266;28;20049;-71
2023/06/11 00:23:38;;;;;;;14.47;6.30;;;19.00;99.90;;;;;;5073028;28;20452;-71
2023/06/11 00:26:05;;;;;;;13.03;6.07;;;19.00;99.90;;;;;;5073462;28;20096;-71
2023/06/11 00:28:31;;;;;;;13.07;6.67;;;19.00;99.90;;;;;;5089134;28;20048;-72
2023/06/11 00:30:57;;;;;;;15.03;6.13;;;19.00;99.90;;;;;;5071927;28;20138;-71
2023/06/11 00:33:22;;;;;;;15.17;8.00;;;19.00;99.90;;;;;;5072146;28;20131;-71
2023/06/11 00:35:48;;;;;;;11.00;6.07;;;18.90;99.90;;;;;;5073319;28;20048;-71
2023/06/11 00:38:15;;;;;;;12.77;6.90;;;18.90;99.90;;;;;;5088698;28;20053;-71
2023/06/11 00:40:41;;;;;;;12.97;6.67;;;18.90;99.90;;;;;;5071564;28;20469;-71
2023/06/11 00:43:07;;;;;;;11.47;6.30;;;18.90;99.90;;;;;;5073235;28;20049;-71
2023/06/11 00:45:35;;;;;;;14.40;7.03;;;18.80;99.90;;;;;;5073271;28;20106;-71
2023/06/11 00:48:01;;;;;;;12.73;6.70;;;18.80;99.90;;;;;;5072957;28;20052;-71
2023/06/11 00:50:28;;;;;;;12.33;6.90;;;18.80;99.90;;;;;;5072153;28;20097;-71
2023/06/11 00:52:54;;;;;;;11.43;7.10;;;18.80;99.90;;;;;;5071710;28;20049;-71
2023/06/11 00:55:21;;;;;;;11.83;6.10;;;18.80;99.90;;;;;;5088737;28;20053;-72
2023/06/11 00:57:48;;;;;;;12.23;6.63;;;18.80;99.90;;;;;;5072831;28;20048;-71
2023/06/11 01:00:14;;;;;;;14.17;8.00;;;18.80;99.90;;;;;;5073022;28;20055;-72
2023/06/11 01:02:47;;;;;;;11.47;6.30;;;18.80;99.90;;;;;;5073004;28;20476;-72
2023/06/11 01:05:17;;;;;;;11.93;6.73;;;18.70;99.90;;;;;;5072928;28;20053;-72
2023/06/11 01:07:51;;;;;;;10.93;7.17;;;18.70;99.90;;;;;;5072862;28;20047;-71
2023/06/11 01:10:21;;;;;;;12.47;7.03;;;18.70;99.90;;;;;;5072886;28;20499;-73
2023/06/11 01:12:47;;;;;;;11.90;7.00;;;18.70;99.90;;;;;;5072540;28;20499;-71
2023/06/11 01:15:14;;;;;;;11.70;7.33;;;18.70;99.90;;;;;;5072856;28;20059;-72
2023/06/11 01:17:54;;;;;;;11.00;6.80;;;18.60;99.90;;;;;;5072941;28;20393;-73
2023/06/11 01:20:55;;;;;;;14.13;7.20;;;18.60;99.90;;;;;;5072161;28;20056;-72
2023/06/11 01:23:46;;;;;;;12.33;6.83;;;18.60;99.90;;;;;;5067697;28;20052;-72
2023/06/11 01:26:28;;;;;;;13.43;7.67;;;18.70;99.90;;;;;;5077057;28;20049;-73
2023/06/11 01:28:56;;;;;;;11.53;7.17;;;18.60;99.90;;;;;;5076601;28;20476;-71
2023/06/11 01:31:22;;;;;;;10.63;6.80;;;18.60;99.90;;;;;;5075703;28;20046;-73
2023/06/11 01:33:48;;;;;;;9.93;7.00;;;18.60;99.90;;;;;;5076429;28;20202;-71
2023/06/11 01:36:14;;;;;;;10.40;7.27;;;18.60;99.90;;;;;;5092141;28;20094;-71
2023/06/11 01:38:44;;;;;;;13.83;7.87;;;18.60;99.90;;;;;;5076686;28;20056;-71
2023/06/11 01:41:14;;;;;;;11.67;6.83;;;18.60;99.90;;;;;;5074913;28;20485;-71
2023/06/11 01:43:43;;;;;;;11.23;6.60;;;18.60;99.90;;;;;;5092186;28;20091;-72
2023/06/11 01:46:08;;;;;;;16.10;7.20;;;18.60;99.90;;;;;;5075166;28;20051;-71
2023/06/11 01:48:35;;;;;;;11.80;7.27;;;18.60;99.90;;;;;;5076394;28;20044;-73
2023/06/11 01:51:01;;;;;;;13.00;6.80;;;18.60;99.90;;;;;;5074823;28;20040;-72
2023/06/11 01:53:27;;;;;;;16.07;7.07;;;18.50;99.90;;;;;;5076291;28;20044;-72
2023/06/11 01:55:55;;;;;;;11.03;6.23;;;18.50;99.90;;;;;;5076107;28;20561;-71
2023/06/11 01:58:20;;;;;;;11.57;6.67;;;18.50;99.90;;;;;;5076192;28;20113;-72
2023/06/11 02:00:47;;;;;;;9.83;6.70;;;18.50;99.90;;;;;;5076215;28;20041;-73
2023/06/11 02:03:17;;;;;;;12.37;7.40;;;18.50;99.90;;;;;;5074855;28;20044;-73
2023/06/11 02:05:43;;;;;;;10.87;7.00;;;18.40;99.90;;;;;;5076021;28;20105;-72
2023/06/11 02:08:10;;;;;;;11.57;7.00;;;18.40;99.90;;;;;;5075775;28;20103;-72
2023/06/11 02:10:36;;;;;;;10.53;6.13;;;18.40;99.90;;;;;;5075847;28;20052;-73
2023/06/11 02:13:01;;;;;;;11.83;6.97;;;18.40;99.90;;;;;;5075621;28;20041;-71
2023/06/11 02:15:27;;;;;;;10.07;7.03;;;18.40;99.90;;;;;;5075884;28;20161;-73
2023/06/11 02:17:53;;;;;;;11.47;7.13;;;18.40;99.90;;;;;;5075635;28;20048;-71
2023/06/11 02:20:19;;;;;;;9.50;6.23;;;18.40;99.90;;;;;;5074580;28;20044;-72
2023/06/11 02:22:44;;;;;;;10.63;6.57;;;18.40;99.90;;;;;;5074817;28;20052;-73
2023/06/11 02:25:10;;;;;;;12.27;6.57;;;18.40;99.90;;;;;;5074262;28;20052;-71
2023/06/11 02:27:36;;;;;;;10.83;7.13;;;18.40;99.90;;;;;;5075705;28;20132;-73
2023/06/11 02:30:01;;;;;;;13.53;7.10;;;18.30;99.90;;;;;;5075364;28;20507;-71
2023/06/11 02:32:27;;;;;;;11.13;7.53;;;18.30;99.90;;;;;;5075035;28;20041;-72
2023/06/11 02:34:53;;;;;;;10.27;7.20;;;18.30;99.90;;;;;;5075406;28;20132;-71
2023/06/11 02:37:18;;;;;;;9.57;6.60;;;18.30;99.90;;;;;;5074062;28;20561;-72
2023/06/11 02:39:45;;;;;;;11.10;7.13;;;18.30;99.90;;;;;;5075585;28;20070;-73
2023/06/11 02:42:11;;;;;;;12.43;7.50;;;18.20;99.90;;;;;;5090894;28;20097;-72
2023/06/11 02:44:36;;;;;;;10.07;6.70;;;18.20;99.90;;;;;;5075314;28;20041;-72
2023/06/11 02:47:02;;;;;;;10.33;6.63;;;18.20;99.90;;;;;;5075181;28;20500;-72
2023/06/11 02:49:28;;;;;;;9.23;6.20;;;18.20;99.90;;;;;;5075341;28;20091;-73
2023/06/11 02:51:53;;;;;;;11.00;7.30;;;18.10;99.90;;;;;;5075097;28;20040;-71
2023/06/11 02:54:19;;;;;;;10.07;6.87;;;18.20;99.90;;;;;;5075112;28;20067;-72
2023/06/11 02:56:45;;;;;;;9.80;6.53;;;18.20;99.90;;;;;;5073821;28;20082;-72
2023/06/11 02:59:10;;;;;;;12.70;7.13;;;18.10;99.90;;;;;;5074911;28;20044;-72
2023/06/11 03:01:38;;;;;;;10.87;6.93;;;18.10;99.90;;;;;;5075273;28;20036;-73
2023/06/11 03:04:05;;;;;;;10.60;7.13;;;18.10;99.90;;;;;;5073754;28;20048;-72
2023/06/11 03:06:31;;;;;;;8.93;6.73;;;18.10;99.90;;;;;;5075051;28;20063;-72
2023/06/11 03:08:57;;;;;;;11.43;7.20;;;18.10;99.90;;;;;;5074655;28;20067;-71
2023/06/11 03:11:23;;;;;;;9.33;7.43;;;18.10;99.90;;;;;;5074733;28;20037;-72
2023/06/11 03:13:48;;;;;;;10.97;7.13;;;18.00;99.90;;;;;;5074778;28;20048;-72
2023/06/11 03:16:14;;;;;;;8.37;6.43;;;18.00;99.90;;;;;;5074502;28;20049;-72
2023/06/11 03:18:41;;;;;;;13.47;7.30;;;18.00;99.90;;;;;;5074632;28;20067;-73
2023/06/11 03:21:07;;;;;;;8.70;6.30;;;18.00;99.90;;;;;;5073319;28;20114;-72
2023/06/11 03:23:33;;;;;;;11.10;6.73;;;18.00;99.90;;;;;;5074636;28;20044;-71
2023/06/11 03:25:59;;;;;;;10.57;7.37;;;17.90;99.90;;;;;;5074281;28;20095;-71
2023/06/11 03:28:26;;;;;;;10.50;7.03;;;17.90;99.90;;;;;;5074470;28;20087;-72
2023/06/11 03:30:52;;;;;;;8.77;6.63;;;17.90;99.90;;;;;;5074368;28;20461;-72
2023/06/11 03:33:17;;;;;;;12.07;7.67;;;17.90;99.90;;;;;;5074178;28;20127;-73
2023/06/11 03:35:43;;;;;;;9.40;6.80;;;17.90;99.90;;;;;;5074512;28;20455;-72
2023/06/11 03:38:09;;;;;;;10.20;7.77;;;17.90;99.90;;;;;;5089710;28;20062;-72
2023/06/11 03:40:34;;;;;;;9.57;6.77;;;17.80;99.90;;;;;;5074302;28;20051;-73
2023/06/11 03:43:00;;;;;;;12.10;7.20;;;17.80;99.90;;;;;;5074003;28;20048;-72
2023/06/11 03:45:26;;;;;;;12.63;7.53;;;17.80;99.90;;;;;;5073538;28;20465;-72
2023/06/11 03:47:55;;;;;;;9.97;7.10;;;17.80;99.90;;;;;;5074147;28;20041;-72
2023/06/11 03:50:22;;;;;;;11.47;7.30;;;17.80;99.90;;;;;;5073898;28;20044;-72
2023/06/11 03:52:47;;;;;;;9.33;7.00;;;17.80;99.90;;;;;;5073898;28;20048;-72
2023/06/11 03:55:14;;;;;;;10.27;7.70;;;17.80;99.90;;;;;;5073756;28;20052;-72
2023/06/11 03:57:40;;;;;;;8.80;7.30;;;17.80;99.90;;;;;;5072568;28;20056;-72
2023/06/11 04:00:07;;;;;;;9.93;8.50;;;17.80;99.90;;;;;;5073658;28;20044;-72
2023/06/11 04:02:34;;;;;;;11.87;7.47;;;17.80;99.90;;;;;;5072942;28;20405;-72
2023/06/11 04:05:01;;;;;;;9.67;7.30;;;17.80;99.90;;;;;;5073756;28;20045;-72
2023/06/11 04:07:27;;;;;;;9.90;7.80;;;17.80;99.90;;;;;;5073483;28;20040;-72
2023/06/11 04:09:53;;;;;;;10.73;7.47;;;17.80;99.90;;;;;;5072412;28;20094;-72
2023/06/11 04:12:18;;;;;;;12.33;7.33;;;17.90;99.90;;;;;;5073356;28;20037;-72
2023/06/11 04:14:44;;;;;;;10.70;6.97;;;17.90;99.90;;;;;;5073689;28;20048;-72
2023/06/11 04:17:10;;;;;;;8.53;7.43;;;17.90;99.90;;;;;;5073361;28;20109;-72
2023/06/11 04:19:36;;;;;;;9.00;7.50;;;17.90;99.90;;;;;;5072300;28;20083;-72
2023/06/11 04:22:02;;;;;;;8.83;6.47;;;18.00;99.90;;;;;;5072376;28;20040;-72
2023/06/11 04:24:27;;;;;;;10.37;7.37;;;18.00;99.90;;;;;;5073235;28;20048;-72
2023/06/11 04:26:53;;;;;;;9.40;7.27;;;18.10;99.90;;;;;;5073473;28;20109;-72
2023/06/11 04:29:19;;;;;;;11.77;7.50;;;18.10;99.90;;;;;;5088479;28;20445;-72
2023/06/11 04:31:50;;;;;;;11.17;7.17;;;18.10;99.90;;;;;;5073259;28;20090;-72
2023/06/11 04:34:17;;;;;;;9.23;7.90;;;18.20;99.90;;;;;;5073130;28;20049;-72
2023/06/11 04:36:43;;;;;;;9.17;7.37;;;18.20;99.90;;;;;;5073222;28;20055;-72
2023/06/11 04:39:09;;;;;;;9.53;7.83;;;18.30;99.90;;;;;;5072991;28;20056;-72
2023/06/11 04:41:36;;;;;;;9.10;8.10;;;18.40;99.90;;;;;;5073313;28;20051;-72
2023/06/11 04:44:03;;;;;;;9.50;7.80;;;18.40;99.90;;;;;;5071963;28;20044;-72
2023/06/11 04:46:29;;;;;;;11.27;8.70;;;18.50;99.90;;;;;;5072910;28;20139;-72
2023/06/11 04:48:58;;;;;;;12.10;8.40;;;18.60;99.90;;;;;;5073173;28;20044;-72
2023/06/11 04:51:25;;;;;;;11.53;8.27;;;18.70;99.90;;;;;;5071602;28;20121;-72
2023/06/11 04:53:52;;;;;;;11.30;8.07;;;18.80;99.90;;;;;;5073098;28;20056;-72
2023/06/11 04:56:17;;;;;;;10.77;7.60;;;18.90;99.90;;;;;;5072683;28;20053;-72
2023/06/11 04:58:43;;;;;;;9.60;7.70;;;19.00;99.90;;;;;;5071766;28;20156;-72
2023/06/11 05:01:09;;;;;;;12.83;8.57;;;19.10;99.90;;;;;;5072774;28;20048;-72
2023/06/11 05:03:38;;;;;;;10.33;7.73;;;19.20;99.90;;;;;;5071801;28;20547;-72
2023/06/11 05:06:04;;;;;;;8.97;7.63;;;19.30;99.90;;;;;;5073081;28;20114;-72
2023/06/11 05:08:32;;;;;;;11.63;8.07;;;19.40;99.90;;;;;;5072516;28;20060;-72
2023/06/11 05:10:58;;;;;;;11.90;8.57;;;19.50;99.90;;;;;;5072865;28;20052;-72
2023/06/11 05:13:25;;;;;;;10.77;8.53;;;19.60;99.90;;;;;;5088430;28;20055;-72
2023/06/11 05:15:57;;;;;;;9.77;8.40;;;19.70;99.90;;;;;;5072887;28;20048;-72
2023/06/11 05:18:25;;;;;;;9.27;7.77;;;19.80;99.90;;;;;;5071691;28;20044;-72
2023/06/11 05:20:51;;;;;;;12.30;7.90;;;19.90;99.90;;;;;;5072823;28;20040;-72
2023/06/11 05:23:18;;;;;;;10.13;8.20;;;20.00;99.90;;;;;;5071337;28;20045;-72
2023/06/11 05:25:47;;;;;;;10.07;8.00;;;20.10;99.90;;;;;;5072311;28;20052;-72
2023/06/11 05:28:17;;;;;;;10.83;8.80;;;20.30;99.90;;;;;;5072583;28;20056;-72
2023/06/11 05:30:45;;;;;;;10.70;8.47;;;20.40;99.90;;;;;;5072952;28;20048;-72
2023/06/11 05:33:13;;;;;;;11.63;8.60;;;20.50;99.90;;;;;;5071466;28;20063;-72
2023/06/11 05:35:39;;;;;;;10.57;7.80;;;20.60;99.90;;;;;;5072053;28;20075;-72
2023/06/11 05:38:09;;;;;;;11.77;8.27;;;20.80;99.90;;;;;;5070825;28;20064;-72
2023/06/11 05:40:36;;;;;;;9.53;8.20;;;20.90;99.90;;;;;;5072380;28;20064;-72
2023/06/11 05:43:06;;;;;;;10.17;8.37;;;21.10;99.90;;;;;;5088208;28;20087;-72
2023/06/11 05:45:32;;;;;;;12.37;8.57;;;21.20;99.90;;;;;;5087995;28;20048;-72
2023/06/11 05:47:59;;;;;;;12.33;8.03;;;21.50;99.90;;;;;;5072550;28;20045;-72
2023/06/11 05:50:25;;;;;;;11.47;9.13;;;22.30;99.90;;;;;;5072362;28;20055;-72
2023/06/11 05:52:51;;;;;;;7.87;7.07;;;23.50;99.90;;;;;;5072190;28;20477;-72
2023/06/11 05:55:17;;;;;;;9.83;7.37;;;24.80;99.90;;;;;;5072255;28;20044;-72
2023/06/11 05:57:42;;;;;;;10.07;7.23;;;25.80;99.90;;;;;;5072517;28;20044;-72
2023/06/11 06:00:12;;;;;;;9.20;7.47;;;26.60;98.10;;;;;;5072397;28;20477;-72
2023/06/11 06:02:41;;;;;;;9.47;6.87;;;27.20;94.20;;;;;;5072198;28;20105;-72
2023/06/11 06:05:08;;;;;;;8.40;7.17;;;27.90;84.70;;;;;;5072386;28;20131;-73
2023/06/11 06:07:33;;;;;;;10.07;6.83;;;28.60;86.70;;;;;;5071993;28;20040;-73
2023/06/11 06:10:01;;;;;;;8.40;6.93;;;29.10;73.60;;;;;;5076079;28;20094;-73
2023/06/11 06:12:26;;;;;;;10.03;7.60;;;29.50;69.00;;;;;;5075722;28;20044;-73
2023/06/11 06:14:52;;;;;;;8.47;6.80;;;29.90;66.00;;;;;;5076000;28;20052;-73
2023/06/11 06:17:18;;;;;;;8.43;6.87;;;30.20;63.00;;;;;;5075712;28;20055;-72
2023/06/11 06:19:43;;;;;;;9.80;6.45;;;30.30;60.20;;;;;;5076060;28;20045;-73
2023/06/11 06:22:09;;;;;;;7.22;6.05;;;30.50;57.80;;;;;;5075752;28;20041;-74
2023/06/11 06:24:35;;;;;;;7.63;6.03;;;31.00;56.80;;;;;;5075555;28;20051;-73
2023/06/11 06:27:00;;;;;;;8.70;6.90;;;31.20;55.40;;;;;;5074868;28;20071;-73
2023/06/11 06:29:26;;;;;;;7.75;6.30;;;31.50;55.00;;;;;;5075418;28;20139;-73
2023/06/11 06:31:52;;;;;;;8.57;6.40;;;31.80;53.70;;;;;;5075548;28;20083;-73
2023/06/11 06:34:18;;;;;;;7.00;6.20;;;32.30;52.70;;;;;;5057913;28;20048;-73
2023/06/11 06:36:45;;;;;;;8.48;6.50;;;32.30;51.20;;;;;;5075276;28;20041;-73
2023/06/11 06:39:11;;;;;;;9.38;6.65;;;32.50;50.60;;;;;;5075662;28;20049;-73
2023/06/11 06:41:36;;;;;;;7.97;6.72;;;32.70;49.50;;;;;;5075243;28;20044;-73
2023/06/11 06:44:02;;;;;;;9.27;6.55;;;32.80;49.40;;;;;;5075361;28;20465;-73
2023/06/11 06:46:28;;;;;;;7.55;6.15;;;33.40;49.10;;;;;;5090781;28;20048;-73
2023/06/11 06:48:54;;;;;;;8.57;6.85;;;33.60;47.90;;;;;;5075283;28;20477;-73
2023/06/11 06:51:20;;;;;;;9.93;6.43;;;33.70;46.80;;;;;;5074033;28;20047;-73
2023/06/11 06:53:50;;;;;;;9.00;6.93;;;33.90;46.60;;;;;;5075106;28;20074;-73
2023/06/11 06:56:17;;;;;;;8.18;6.57;;;33.80;45.90;;;;;;5074289;28;20067;-73
2023/06/11 06:58:43;;;;;;;10.27;6.68;;;33.50;46.20;;;;;;5073677;28;20514;-73
2023/06/11 07:01:08;;;;;;;9.55;6.88;;;33.40;45.90;;;;;;5075052;28;20045;-74
2023/06/11 07:03:34;;;;;;;8.68;6.45;;;33.60;46.90;;;;;;5074486;28;20056;-73
2023/06/11 07:06:01;;;;;;;8.38;6.93;;;33.70;45.40;;;;;;5075211;28;20051;-73
2023/06/11 07:08:27;;;;;;;9.18;6.57;;;33.60;45.40;;;;;;5074799;28;20048;-73
2023/06/11 07:10:55;;;;;;;10.10;6.32;;;34.10;45.40;;;;;;5074902;28;20051;-73
2023/06/11 07:13:21;;;;;;;7.32;6.28;;;33.80;44.50;;;;;;5074879;28;20052;-73
2023/06/11 07:15:48;;;;;;;8.65;6.63;;;33.90;44.80;;;;;;5090308;28;20135;-73
2023/06/11 07:18:14;;;;;;;7.75;6.35;;;34.20;44.20;;;;;;5074689;28;20049;-73
2023/06/11 07:20:40;;;;;;;8.82;6.63;;;34.50;44.30;;;;;;5072672;28;20048;-73
2023/06/11 07:23:06;;;;;;;8.60;6.07;;;34.60;43.80;;;;;;5074679;28;20052;-73
2023/06/11 07:25:33;;;;;;;8.45;6.60;;;34.60;44.00;;;;;;5074466;28;20044;-73
2023/06/11 07:28:01;;;;;;;7.50;6.43;;;34.90;43.70;;;;;;5074741;28;20067;-73
2023/06/11 07:30:27;;;;;;;9.18;6.65;;;35.10;43.50;;;;;;5090117;28;20045;-73
2023/06/11 07:32:53;;;;;;;9.00;7.05;;;35.20;42.40;;;;;;5073221;28;20504;-73
2023/06/11 07:35:23;;;;;;;8.95;6.47;;;34.90;42.50;;;;;;5074486;28;20057;-73
2023/06/11 07:37:49;;;;;;;7.70;6.68;;;35.00;43.10;;;;;;5072742;28;20063;-73
2023/06/11 07:40:15;;;;;;;10.77;7.80;;;34.90;42.90;;;;;;5073345;28;20052;-73
2023/06/11 07:42:45;;;;;;;8.35;6.20;;;35.10;42.70;;;;;;5074075;28;20044;-72
2023/06/11 07:45:12;;;;;;;7.57;5.95;;;35.40;42.30;;;;;;5074292;28;20113;-73
2023/06/11 07:47:38;;;;;;;8.02;6.22;;;35.80;42.30;;;;;;5073756;28;20459;-73
2023/06/11 07:50:04;;;;;;;8.68;6.90;;;35.90;41.70;;;;;;5074429;28;20131;-73
2023/06/11 07:52:30;;;;;;;7.03;6.10;;;36.00;41.70;;;;;;5072589;28;20503;-73
2023/06/11 07:54:56;;;;;;;7.50;6.68;;;36.40;41.10;;;;;;5073914;28;20052;-73
2023/06/11 07:57:22;;;;;;;7.75;6.38;;;36.10;40.90;;;;;;5073041;28;20052;-73
2023/06/11 07:59:48;;;;;;;7.63;6.40;;;35.80;41.30;;;;;;5073818;28;20086;-73
2023/06/11 08:02:14;;;;;;;6.65;5.82;;;35.60;41.00;;;;;;5072966;28;20037;-73
2023/06/11 08:04:41;;;;;;;8.88;6.03;;;35.40;41.80;;;;;;5072520;28;20143;-73
2023/06/11 08:07:07;;;;;;;7.03;6.28;;;35.30;42.20;;;;;;5073875;28;20142;-73
2023/06/11 08:09:35;;;;;;;6.55;5.85;;;35.80;42.00;;;;;;5073659;28;20048;-73
2023/06/11 08:12:11;;;;;;;9.55;6.03;;;36.00;41.50;;;;;;5073753;28;20131;-73
2023/06/11 08:14:37;;;;;;;8.05;6.80;;;36.10;40.30;;;;;;5073627;28;20131;-73
2023/06/11 08:17:03;;;;;;;7.32;6.45;;;36.20;41.10;;;;;;5073661;28;20135;-73
2023/06/11 08:19:29;;;;;;;8.10;6.32;;;36.20;40.80;;;;;;5072467;28;20131;-73
2023/06/11 08:21:55;;;;;;;8.35;6.22;;;36.30;40.50;;;;;;5072262;28;20098;-73
2023/06/11 08:24:22;;;;;;;9.73;5.53;;;36.50;40.60;;;;;;5073760;28;20049;-73
2023/06/11 08:26:48;;;;;;;9.00;6.18;;;36.80;40.30;;;;;;5073398;28;20044;-73
2023/06/11 08:29:15;;;;;;;7.85;6.10;;;37.00;40.30;;;;;;5073545;28;20151;-73
2023/06/11 08:31:41;;;;;;;6.82;6.05;;;37.30;39.70;;;;;;5072869;28;20045;-73
2023/06/11 08:34:07;;;;;;;7.63;6.10;;;36.80;39.40;;;;;;5089115;28;20151;-70
2023/06/11 08:36:33;;;;;;;8.50;5.47;;;36.70;40.40;;;;;;5073248;28;20057;-70
2023/06/11 08:38:59;;;;;;;6.70;5.43;;;36.30;40.70;;;;;;5073147;28;20064;-70
2023/06/11 08:41:28;;;;;;;7.57;6.07;;;36.30;41.00;;;;;;5072542;28;20059;-72
2023/06/11 08:43:55;;;;;;;6.90;5.93;;;36.60;41.00;;;;;;5073139;28;20124;-71
2023/06/11 08:46:23;;;;;;;7.57;5.93;;;36.50;41.00;;;;;;5072296;28;20052;-71
2023/06/11 08:49:04;;;;;;;8.15;5.68;;;36.40;41.10;;;;;;5073080;28;20048;-71
2023/06/11 08:51:35;;;;;;;6.88;6.13;;;35.90;41.30;;;;;;5073307;28;20091;-71
2023/06/11 08:54:01;;;;;;;11.00;6.00;;;35.30;41.80;;;;;;5073302;28;20090;-71
2023/06/11 08:56:27;;;;;;;6.75;6.03;;;34.60;42.40;;;;;;5073110;28;20045;-71
2023/06/11 08:58:54;;;;;;;6.53;5.40;;;34.30;42.60;;;;;;5071731;28;20048;-72
2023/06/11 09:01:22;;;;;;;8.55;5.47;;;33.70;42.70;;;;;;5055420;28;20392;-70
2023/06/11 09:03:48;;;;;;;7.30;5.85;;;33.20;43.30;;;;;;5072820;28;20048;-70
2023/06/11 09:06:14;;;;;;;7.53;6.72;;;32.80;43.60;;;;;;5072969;28;20052;-71
2023/06/11 09:08:40;;;;;;;7.82;6.20;;;32.30;44.30;;;;;;5072669;28;20089;-70
2023/06/11 09:11:06;;;;;;;8.25;6.05;;;32.10;45.00;;;;;;5072853;28;20502;-70
2023/06/11 09:13:32;;;;;;;6.80;6.07;;;31.80;45.50;;;;;;5072882;28;20131;-71
2023/06/11 09:15:58;;;;;;;8.18;6.55;;;31.70;46.00;;;;;;5072692;28;20091;-72
2023/06/11 09:18:28;;;;;;;9.93;6.68;;;31.60;46.20;;;;;;5072138;28;20061;-72
2023/06/11 09:20:56;;;;;;;7.38;5.90;;;31.50;46.60;;;;;;5072630;28;20041;-72
2023/06/11 09:23:30;;;;;;;7.85;6.68;;;31.50;46.70;;;;;;5072069;28;20110;-72
2023/06/11 09:25:56;;;;;;;8.88;6.65;;;31.20;47.30;;;;;;5072634;28;20048;-72
2023/06/11 09:28:36;;;;;;;8.20;6.22;;;31.20;47.30;;;;;;5071587;28;20056;-72
2023/06/11 09:31:04;;;;;;;9.50;6.28;;;31.30;48.00;;;;;;5072579;28;20055;-72
2023/06/11 09:33:31;;;;;;;6.47;5.60;;;31.30;47.60;;;;;;5072772;28;20131;-73
2023/06/11 09:36:00;;;;;;;6.65;5.95;;;31.30;47.90;;;;;;5072542;28;20049;-72
2023/06/11 09:38:26;;;;;;;7.55;6.03;;;31.10;47.90;;;;;;5072782;28;20064;-72
2023/06/11 09:40:55;;;;;;;7.88;6.47;;;30.90;48.30;;;;;;5072499;28;20048;-72
2023/06/11 09:43:23;;;;;;;10.55;6.30;;;30.70;48.90;;;;;;5074749;28;20471;-72
2023/06/11 09:45:52;;;;;;;10.38;5.78;;;30.50;49.00;;;;;;5076345;28;20114;-72
2023/06/11 09:48:22;;;;;;;7.90;6.20;;;30.30;49.20;;;;;;5075833;28;20524;-72
2023/06/11 09:50:50;;;;;;;12.02;6.47;;;30.20;49.50;;;;;;5075211;28;20044;-72
2023/06/11 09:53:17;;;;;;;6.75;5.70;;;30.40;49.80;;;;;;5076449;28;20053;-72
2023/06/11 09:55:43;;;;;;;7.38;6.13;;;30.30;49.70;;;;;;5076436;28;20090;-72
2023/06/11 09:58:10;;;;;;;7.93;5.72;;;30.20;49.80;;;;;;5076528;28;20132;-72
2023/06/11 10:00:35;;;;;;;7.15;5.93;;;30.10;50.00;;;;;;5076327;28;20045;-72
2023/06/11 10:03:02;;;;;;;8.98;6.10;;;30.00;50.10;;;;;;5076055;28;20049;-72
2023/06/11 10:05:28;;;;;;;8.43;6.03;;;30.00;50.40;;;;;;5076215;28;20091;-72
2023/06/11 10:08:03;;;;;;;9.90;6.07;;;30.00;50.60;;;;;;5075952;28;20048;-72
2023/06/11 10:10:33;;;;;;;7.18;6.05;;;29.90;50.40;;;;;;5076164;28;20044;-72
2023/06/11 10:13:00;;;;;;;9.73;5.85;;;29.90;50.60;;;;;;5075805;28;20044;-72
2023/06/11 10:15:26;;;;;;;8.93;6.00;;;29.80;50.60;;;;;;5075920;28;20041;-72
2023/06/11 10:17:53;;;;;;;8.80;5.72;;;29.80;51.00;;;;;;5074148;28;20049;-72
2023/06/11 10:20:31;;;;;;;9.27;6.50;;;29.70;51.00;;;;;;5076176;28;20133;-72
2023/06/11 10:23:04;;;;;;;13.35;6.20;;;29.70;50.70;;;;;;5075777;28;20041;-72
2023/06/11 10:25:34;;;;;;;7.45;5.53;;;29.60;50.80;;;;;;5074585;28;20063;-72
2023/06/11 10:28:00;;;;;;;6.95;5.55;;;29.60;50.90;;;;;;5075518;28;20450;-72
2023/06/11 10:30:26;;;;;;;10.90;5.40;;;29.50;51.00;;;;;;5075937;28;20114;-72
2023/06/11 10:32:53;;;;;;;6.90;5.60;;;29.60;51.40;;;;;;5075536;28;20128;-71
2023/06/11 10:35:28;;;;;;;6.60;5.45;;;29.60;51.60;;;;;;5075656;28;20123;-73
2023/06/11 10:38:12;;;;;;;6.10;5.10;;;29.60;50.90;;;;;;5075218;28;20063;-72
2023/06/11 10:40:39;;;;;;;6.57;4.97;;;29.60;50.20;;;;;;5075717;28;20059;-72
2023/06/11 10:43:24;;;;;;;7.82;5.13;;;29.50;50.40;;;;;;5075308;28;20392;-72
2023/06/11 10:46:06;;;;;;;7.25;5.70;;;29.50;50.20;;;;;;5073362;28;20057;-71
2023/06/11 10:48:32;;;;;;;6.80;5.25;;;29.50;50.70;;;;;;5074704;28;20093;-72
2023/06/11 10:51:02;;;;;;;8.30;5.53;;;29.40;50.90;;;;;;5075079;28;20076;-72
2023/06/11 10:53:39;;;;;;;7.15;5.20;;;29.50;50.90;;;;;;5074013;28;20063;-72
2023/06/11 10:56:06;;;;;;;8.30;5.60;;;29.50;50.40;;;;;;5073909;28;20052;-71
2023/06/11 10:58:33;;;;;;;7.28;4.90;;;29.40;50.60;;;;;;5075268;28;20393;-72
2023/06/11 11:00:59;;;;;;;7.95;5.57;;;29.40;50.50;;;;;;5074941;28;20515;-71
2023/06/11 11:03:29;;;;;;;7.78;5.03;;;29.50;50.70;;;;;;5073860;28;20127;-72
2023/06/11 11:05:55;;;;;;;5.88;4.97;;;29.50;49.80;;;;;;5074911;28;20485;-73
2023/06/11 11:08:21;;;;;;;9.25;4.85;;;29.50;49.60;;;;;;5075038;28;20484;-72
2023/06/11 11:10:53;;;;;;;6.32;5.30;;;29.50;49.90;;;;;;5074964;28;20043;-72
2023/06/11 11:13:20;;;;;;;7.00;5.43;;;29.50;50.30;;;;;;5073574;28;20052;-71
2023/06/11 11:15:46;;;;;;;6.28;4.65;;;29.50;50.00;;;;;;5074848;28;20083;-72
2023/06/11 11:18:12;;;;;;;6.03;4.55;;;29.50;49.40;;;;;;5073597;28;20139;-71
2023/06/11 11:20:38;;;;;;;6.10;4.13;;;29.40;48.30;;;;;;5073762;28;20135;-72
2023/06/11 11:23:06;;;;;;;7.88;4.47;;;29.50;49.00;;;;;;5074550;28;20052;-71
2023/06/11 11:25:32;;;;;;;7.63;4.97;;;29.50;48.60;;;;;;5074737;28;20051;-71
2023/06/11 11:27:58;;;;;;;6.57;4.78;;;29.50;48.70;;;;;;5074406;28;20538;-71
2023/06/11 11:30:28;;;;;;;6.95;4.63;;;29.60;48.70;;;;;;5074532;28;20044;-71
2023/06/11 11:32:55;;;;;;;7.93;4.25;;;29.50;47.80;;;;;;5074084;28;20052;-71
2023/06/11 11:35:22;;;;;;;6.78;4.50;;;29.60;48.50;;;;;;5090307;28;20080;-71
2023/06/11 11:37:51;;;;;;;7.15;4.60;;;29.50;47.90;;;;;;5074364;28;20052;-72
2023/06/11 11:40:21;;;;;;;5.88;4.47;;;29.40;47.80;;;;;;5073157;28;20473;-71
2023/06/11 11:42:51;;;;;;;6.82;4.72;;;29.50;47.80;;;;;;5074602;28;20405;-72
2023/06/11 11:45:18;;;;;;;6.30;4.45;;;29.50;48.10;;;;;;5072870;28;20132;-71
2023/06/11 11:47:50;;;;;;;6.97;4.93;;;29.50;48.10;;;;;;5074115;28;20055;-71
2023/06/11 11:50:27;;;;;;;6.03;4.55;;;29.50;47.70;;;;;;5073663;28;20508;-71
2023/06/11 11:53:06;;;;;;;5.72;4.30;;;29.50;48.10;;;;;;5074119;28;20048;-73
2023/06/11 11:55:34;;;;;;;6.53;4.80;;;29.50;48.10;;;;;;5074084;28;20513;-72
2023/06/11 11:58:04;;;;;;;8.02;4.20;;;29.70;48.20;;;;;;5073638;28;20109;-71
2023/06/11 12:00:30;;;;;;;8.75;4.70;;;29.70;47.50;;;;;;5073923;28;20179;-73
2023/06/11 12:02:57;;;;;;;7.03;4.40;;;29.70;46.80;;;;;;5056266;28;20539;-72
2023/06/11 12:05:28;;;;;;;9.07;4.50;;;29.70;47.10;;;;;;5072220;28;20045;-72
2023/06/11 12:07:54;;;;;;;7.55;4.63;;;29.70;47.00;;;;;;5072834;28;20053;-72
2023/06/11 12:10:21;;;;;;;6.65;4.75;;;29.70;46.30;;;;;;5072532;28;20051;-72
2023/06/11 12:12:47;;;;;;;7.35;4.25;;;29.80;46.70;;;;;;5072625;28;20094;-72
2023/06/11 12:15:13;;;;;;;6.30;4.30;;;29.70;46.10;;;;;;5072457;28;20510;-72
2023/06/11 12:17:43;;;;;;;7.35;4.40;;;29.70;45.50;;;;;;5073859;28;20145;-71
2023/06/11 12:20:09;;;;;;;6.70;4.63;;;29.70;45.20;;;;;;5072503;28;20157;-71
2023/06/11 12:22:35;;;;;;;8.25;4.60;;;29.70;45.60;;;;;;5073664;28;20119;-72
2023/06/11 12:25:00;;;;;;;6.35;4.40;;;29.70;45.80;;;;;;5072187;28;20445;-71
2023/06/11 12:27:26;;;;;;;8.98;5.15;;;29.60;44.80;;;;;;5073924;28;20041;-71
2023/06/11 12:29:53;;;;;;;6.97;4.30;;;29.60;44.70;;;;;;5055556;28;20481;-72
2023/06/11 12:32:24;;;;;;;8.60;4.22;;;29.60;44.70;;;;;;5073180;28;20052;-71
2023/06/11 12:34:50;;;;;;;7.25;4.40;;;29.60;44.70;;;;;;5072387;28;20040;-72
2023/06/11 12:37:16;;;;;;;6.60;4.47;;;29.50;44.50;;;;;;5073069;28;20079;-71
2023/06/11 12:39:43;;;;;;;8.07;4.88;;;29.50;44.90;;;;;;5073331;28;20110;-71
2023/06/11 12:42:15;;;;;;;7.00;4.43;;;29.50;45.10;;;;;;5072104;28;20099;-71
2023/06/11 12:44:47;;;;;;;6.35;4.75;;;29.50;45.30;;;;;;5073172;28;20484;-72